Time;durP1;ratioP1;P1;durP2;ratioP2;P2;SDS_P1;SDS_P2;PMS_P1;PMS_P2;Temp;Humidity;BMP_temperature;BMP_pressure;BME280_temperature;BME280_humidity;BME280_pressure;Samples;Min_cycle;Max_cycle;Signal;HPM_P1;HPM_P2
2023/01/20 00:02:12;;;;;;;13.40;10.03;;;0.70;99.70;;;;;;5049391;28;20440;-89
2023/01/20 00:04:38;;;;;;;14.23;11.05;;;0.70;99.70;;;;;;5049788;28;20411;-90
2023/01/20 00:07:04;;;;;;;23.25;19.02;;;0.70;99.60;;;;;;5049755;28;20403;-88
2023/01/20 00:09:29;;;;;;;20.60;17.70;;;0.70;99.50;;;;;;5049548;28;20415;-90
2023/01/20 00:11:55;;;;;;;14.80;12.17;;;0.60;99.30;;;;;;5049603;28;20921;-89
2023/01/20 00:14:20;;;;;;;12.32;9.27;;;0.60;99.40;;;;;;5048924;28;20797;-88
2023/01/20 00:16:46;;;;;;;10.67;8.33;;;0.50;99.40;;;;;;5066896;28;20608;-90
2023/01/20 00:19:13;;;;;;;10.47;6.93;;;0.50;99.20;;;;;;5048895;28;20411;-89
2023/01/20 00:21:39;;;;;;;10.10;6.53;;;0.40;99.20;;;;;;5066645;28;20435;-89
2023/01/20 00:24:05;;;;;;;9.18;6.00;;;0.30;99.40;;;;;;5049215;28;20817;-90
2023/01/20 00:26:31;;;;;;;7.60;5.55;;;0.20;99.30;;;;;;5065198;28;20412;-90
2023/01/20 00:28:56;;;;;;;8.55;6.28;;;0.10;99.40;;;;;;5049482;28;20427;-90
2023/01/20 00:31:23;;;;;;;9.80;6.37;;;0.10;99.50;;;;;;5049087;28;20491;-90
2023/01/20 00:33:51;;;;;;;10.50;6.50;;;0.00;99.60;;;;;;5049698;28;20430;-89
2023/01/20 00:36:18;;;;;;;9.75;6.65;;;0.00;99.60;;;;;;5064625;28;20484;-89
2023/01/20 00:38:44;;;;;;;9.95;6.95;;;-0.10;99.60;;;;;;5066653;28;20408;-90
2023/01/20 00:41:10;;;;;;;10.55;7.13;;;-0.20;99.80;;;;;;5048195;28;20434;-89
2023/01/20 00:43:36;;;;;;;9.77;6.60;;;-0.20;99.70;;;;;;5049778;28;20886;-89
2023/01/20 00:46:03;;;;;;;11.57;7.15;;;-0.30;99.70;;;;;;5048792;28;20408;-89
2023/01/20 00:48:29;;;;;;;9.50;6.95;;;-0.30;99.70;;;;;;5065096;28;20403;-89
2023/01/20 00:50:55;;;;;;;12.05;8.50;;;-0.30;99.70;;;;;;5048810;28;20427;-88
2023/01/20 00:53:20;;;;;;;14.30;10.40;;;-0.40;99.60;;;;;;5064958;28;20430;-90
2023/01/20 00:56:02;;;;;;;14.80;10.02;;;-0.40;99.80;;;;;;5053824;28;20743;-90
2023/01/20 00:58:28;;;;;;;18.20;12.90;;;-0.40;99.80;;;;;;5064775;28;20408;-89
2023/01/20 01:00:54;;;;;;;20.38;12.25;;;-0.50;99.90;;;;;;5048921;28;20523;-90
2023/01/20 01:03:21;;;;;;;18.67;13.05;;;-0.50;99.90;;;;;;5048631;28;20404;-88
2023/01/20 01:05:46;;;;;;;29.15;15.57;;;-0.50;99.90;;;;;;5048506;28;20910;-89
2023/01/20 01:08:13;;;;;;;17.98;12.48;;;-0.50;99.90;;;;;;5065585;28;20415;-88
2023/01/20 01:10:39;;;;;;;18.17;12.43;;;-0.60;99.90;;;;;;5064442;28;20411;-89
2023/01/20 01:13:05;;;;;;;14.60;11.35;;;-0.60;99.90;;;;;;5066044;28;20430;-89
2023/01/20 01:15:31;;;;;;;18.52;12.55;;;-0.60;99.70;;;;;;5047671;28;20901;-89
2023/01/20 01:17:58;;;;;;;23.10;15.27;;;-0.70;99.80;;;;;;5049253;28;20412;-90
2023/01/20 01:20:25;;;;;;;18.48;13.27;;;-0.70;99.80;;;;;;5047994;28;20922;-88
2023/01/20 01:22:50;;;;;;;27.38;17.92;;;-0.70;99.90;;;;;;5049868;28;20392;-89
2023/01/20 01:25:16;;;;;;;20.08;14.48;;;-0.80;99.80;;;;;;5052542;28;20430;-90
2023/01/20 01:27:42;;;;;;;26.30;17.58;;;-0.70;99.90;;;;;;5051750;28;20418;-89
2023/01/20 01:30:08;;;;;;;25.70;17.90;;;-0.80;99.90;;;;;;5069614;28;20411;-87
2023/01/20 01:32:33;;;;;;;26.95;18.10;;;-0.80;99.90;;;;;;5050933;28;20438;-89
2023/01/20 01:34:59;;;;;;;18.10;14.75;;;-0.70;99.90;;;;;;5069482;28;20918;-89
2023/01/20 01:37:26;;;;;;;25.93;18.30;;;-0.70;99.90;;;;;;5068232;28;20475;-88
2023/01/20 01:39:52;;;;;;;27.77;18.23;;;-0.70;99.90;;;;;;5068953;28;20419;-88
2023/01/20 01:42:22;;;;;;;21.30;16.33;;;-0.80;99.90;;;;;;5051888;28;20439;-88
2023/01/20 01:45:09;;;;;;;20.03;15.23;;;-0.80;99.90;;;;;;5051607;28;20477;-90
2023/01/20 01:47:59;;;;;;;27.85;17.92;;;-0.80;99.90;;;;;;5069504;28;20415;-88
2023/01/20 01:50:50;;;;;;;27.00;18.23;;;-0.90;99.90;;;;;;5051354;28;20424;-89
2023/01/20 01:53:16;;;;;;;21.07;14.63;;;-0.80;99.90;;;;;;5062607;28;20534;-88
2023/01/20 01:55:47;;;;;;;21.80;15.30;;;-0.80;99.90;;;;;;5051826;28;20930;-88
2023/01/20 01:58:16;;;;;;;19.55;14.40;;;-0.80;99.90;;;;;;5051458;28;20890;-88
2023/01/20 02:00:42;;;;;;;22.40;15.20;;;-0.80;99.90;;;;;;5052412;28;20484;-90
2023/01/20 02:03:08;;;;;;;19.98;14.25;;;-0.80;99.90;;;;;;5050767;28;20913;-89
2023/01/20 02:05:37;;;;;;;20.73;13.65;;;-0.80;99.90;;;;;;5068579;28;20450;-87
2023/01/20 02:08:03;;;;;;;22.23;14.57;;;-0.80;99.90;;;;;;5067924;28;20526;-88
2023/01/20 02:10:30;;;;;;;19.40;14.03;;;-0.80;99.90;;;;;;5051446;28;20395;-89
2023/01/20 02:12:56;;;;;;;17.95;12.25;;;-0.80;99.90;;;;;;5052103;28;20775;-89
2023/01/20 02:15:29;;;;;;;18.58;13.23;;;-0.80;99.90;;;;;;5050907;28;20479;-88
2023/01/20 02:18:04;;;;;;;18.80;12.15;;;-0.90;99.90;;;;;;5068390;28;20497;-89
2023/01/20 02:20:50;;;;;;;16.85;12.27;;;-0.80;99.90;;;;;;5050492;28;20438;-87
2023/01/20 02:23:28;;;;;;;19.13;13.05;;;-0.80;99.90;;;;;;5051164;28;20458;-89
2023/01/20 02:26:02;;;;;;;17.77;12.70;;;-0.70;99.90;;;;;;5051266;28;20833;-89
2023/01/20 02:29:12;;;;;;;18.17;12.77;;;-0.60;99.90;;;;;;5050454;28;20819;-89
2023/01/20 02:32:03;;;;;;;19.85;12.85;;;-0.50;99.90;;;;;;5068115;28;20423;-88
2023/01/20 02:34:38;;;;;;;18.45;11.55;;;-0.50;99.90;;;;;;5050045;28;20824;-88
2023/01/20 02:37:12;;;;;;;15.30;11.45;;;-0.50;99.90;;;;;;5050107;28;20953;-88
2023/01/20 02:39:55;;;;;;;16.77;11.32;;;-0.50;99.90;;;;;;5068055;28;20436;-88
2023/01/20 02:42:36;;;;;;;16.55;11.60;;;-0.60;99.90;;;;;;5067159;28;20446;-88
2023/01/20 02:45:13;;;;;;;17.30;12.13;;;-0.60;99.90;;;;;;5067486;28;20794;-89
2023/01/20 02:48:02;;;;;;;19.10;12.45;;;-0.60;99.90;;;;;;5067645;28;20400;-88
2023/01/20 02:50:47;;;;;;;16.42;11.65;;;-0.60;99.90;;;;;;5066167;28;20997;-89
2023/01/20 02:53:15;;;;;;;17.67;11.73;;;-0.60;99.90;;;;;;5051497;28;20456;-88
2023/01/20 02:55:48;;;;;;;21.63;13.38;;;-0.70;99.90;;;;;;5050397;28;20424;-88
2023/01/20 02:58:55;;;;;;;18.50;12.70;;;-0.70;99.90;;;;;;5050111;28;20500;-88
2023/01/20 03:01:33;;;;;;;21.55;14.02;;;-0.70;99.90;;;;;;5043162;28;20849;-88
2023/01/20 03:04:01;;;;;;;22.67;14.27;;;-0.70;99.90;;;;;;5049932;28;20508;-88
2023/01/20 03:06:34;;;;;;;22.43;13.97;;;-0.70;99.90;;;;;;5067188;28;20498;-90
2023/01/20 03:09:04;;;;;;;24.85;15.80;;;-0.70;99.90;;;;;;5050269;28;20415;-89
2023/01/20 03:11:35;;;;;;;22.63;14.18;;;-0.60;99.90;;;;;;5049916;28;20404;-89
2023/01/20 03:14:07;;;;;;;25.50;15.82;;;-0.60;99.90;;;;;;5050587;28;20404;-88
2023/01/20 03:16:33;;;;;;;26.50;17.38;;;-0.60;99.90;;;;;;5049145;28;20431;-90
2023/01/20 03:18:59;;;;;;;24.90;16.35;;;-0.60;99.90;;;;;;5050123;28;20407;-88
2023/01/20 03:21:25;;;;;;;33.63;20.52;;;-0.70;99.90;;;;;;5049607;28;20462;-89
2023/01/20 03:23:58;;;;;;;28.55;19.13;;;-0.60;99.90;;;;;;5049878;28;20473;-88
2023/01/20 03:26:23;;;;;;;39.50;21.95;;;-0.60;99.90;;;;;;5066919;28;20420;-88
2023/01/20 03:28:49;;;;;;;35.87;21.30;;;-0.60;99.90;;;;;;5049615;28;20560;-88
2023/01/20 03:31:21;;;;;;;32.83;21.35;;;-0.60;99.90;;;;;;5050258;28;20763;-90
2023/01/20 03:33:49;;;;;;;36.78;22.63;;;-0.50;99.90;;;;;;5049038;28;20412;-88
2023/01/20 03:36:16;;;;;;;43.22;25.92;;;-0.50;99.90;;;;;;5050143;28;20423;-88
2023/01/20 03:38:43;;;;;;;43.72;25.38;;;-0.50;99.90;;;;;;5049158;28;20407;-88
2023/01/20 03:41:21;;;;;;;43.08;24.73;;;-0.50;99.90;;;;;;5049966;28;20455;-89
2023/01/20 03:44:11;;;;;;;45.60;26.48;;;-0.50;99.90;;;;;;5049831;28;20424;-88
2023/01/20 03:47:02;;;;;;;49.25;27.65;;;-0.50;99.90;;;;;;5048302;28;20923;-89
2023/01/20 03:49:53;;;;;;;45.70;27.10;;;-0.50;99.90;;;;;;5049708;28;20426;-88
2023/01/20 03:52:30;;;;;;;44.42;28.38;;;-0.50;99.90;;;;;;5065998;28;20486;-87
2023/01/20 03:55:15;;;;;;;45.58;26.98;;;-0.50;99.90;;;;;;5065500;28;20422;-89
2023/01/20 03:58:19;;;;;;;49.65;28.45;;;-0.50;99.90;;;;;;5064318;28;20404;-88
2023/01/20 04:00:48;;;;;;;53.78;30.60;;;-0.50;99.90;;;;;;5048209;28;20432;-88
2023/01/20 04:03:26;;;;;;;46.97;27.83;;;-0.40;99.90;;;;;;5065920;28;20712;-88
2023/01/20 04:05:52;;;;;;;50.60;28.73;;;-0.50;99.90;;;;;;5049457;28;20420;-88
2023/01/20 04:08:21;;;;;;;51.40;29.83;;;-0.50;99.90;;;;;;5065304;28;20407;-88
2023/01/20 04:10:49;;;;;;;45.55;27.25;;;-0.50;99.90;;;;;;5066390;28;20423;-88
2023/01/20 04:13:15;;;;;;;53.30;30.25;;;-0.50;99.90;;;;;;5065137;28;20408;-88
2023/01/20 04:15:43;;;;;;;58.60;31.70;;;-0.50;99.90;;;;;;5066050;28;20464;-88
2023/01/20 04:18:18;;;;;;;44.38;27.35;;;-0.50;99.90;;;;;;5048728;28;20787;-87
2023/01/20 04:20:47;;;;;;;52.63;30.77;;;-0.60;99.90;;;;;;5048312;28;20442;-89
2023/01/20 04:23:23;;;;;;;47.55;28.63;;;-0.60;99.90;;;;;;5066084;28;20774;-88
2023/01/20 04:25:48;;;;;;;57.90;31.60;;;-0.60;99.90;;;;;;5048228;28;20411;-88
2023/01/20 04:28:14;;;;;;;49.13;29.83;;;-0.60;99.90;;;;;;5049238;28;20507;-91
2023/01/20 04:30:39;;;;;;;51.00;30.85;;;-0.60;99.90;;;;;;5048506;28;20895;-88
2023/01/20 04:33:05;;;;;;;52.13;30.23;;;-0.60;99.90;;;;;;5065751;28;20407;-88
2023/01/20 04:35:31;;;;;;;59.77;33.17;;;-0.60;99.90;;;;;;5048347;28;20402;-88
2023/01/20 04:37:56;;;;;;;73.40;35.70;;;-0.50;99.90;;;;;;5048272;28;20914;-88
2023/01/20 04:40:22;;;;;;;75.18;35.90;;;-0.50;99.90;;;;;;5065414;28;20488;-89
2023/01/20 04:42:47;;;;;;;76.68;36.25;;;-0.40;99.90;;;;;;5064542;28;20396;-88
2023/01/20 04:45:15;;;;;;;70.17;34.83;;;-0.30;99.90;;;;;;5048869;28;20418;-88
2023/01/20 04:47:41;;;;;;;86.85;37.17;;;-0.20;99.90;;;;;;5064441;28;20778;-88
2023/01/20 04:50:08;;;;;;;89.07;38.17;;;-0.20;99.90;;;;;;5065533;28;20847;-88
2023/01/20 04:52:34;;;;;;;87.25;37.13;;;-0.10;99.90;;;;;;5064471;28;20431;-88
2023/01/20 04:54:59;;;;;;;87.60;36.80;;;-0.10;99.90;;;;;;5065218;28;20411;-88
2023/01/20 04:57:25;;;;;;;107.83;39.03;;;0.00;99.90;;;;;;5047749;28;20419;-88
2023/01/20 04:59:51;;;;;;;122.77;41.67;;;0.00;99.90;;;;;;5047556;28;21253;-89
2023/01/20 05:02:16;;;;;;;105.63;38.90;;;0.10;99.90;;;;;;5065652;28;20503;-90
2023/01/20 05:04:42;;;;;;;112.93;39.58;;;0.10;99.90;;;;;;5047454;28;20763;-89
2023/01/20 05:07:08;;;;;;;121.40;40.87;;;0.10;99.90;;;;;;5065682;28;20415;-89
2023/01/20 05:09:33;;;;;;;107.67;38.93;;;0.20;99.90;;;;;;5047881;28;20423;-88
2023/01/20 05:11:59;;;;;;;102.47;37.50;;;0.20;99.90;;;;;;5049028;28;20400;-88
2023/01/20 05:14:25;;;;;;;101.82;37.38;;;0.20;99.90;;;;;;5064978;28;20410;-88
2023/01/20 05:16:50;;;;;;;114.40;39.22;;;0.30;99.90;;;;;;5047878;28;20458;-88
2023/01/20 05:19:16;;;;;;;106.23;38.13;;;0.30;99.90;;;;;;5065293;28;20424;-89
2023/01/20 05:21:41;;;;;;;103.73;37.57;;;0.30;99.90;;;;;;5047237;28;20794;-88
2023/01/20 05:24:07;;;;;;;106.25;37.35;;;0.50;99.90;;;;;;5065344;28;20418;-88
2023/01/20 05:26:33;;;;;;;110.00;37.33;;;0.40;99.90;;;;;;5063886;28;20415;-89
2023/01/20 05:28:59;;;;;;;120.72;37.60;;;0.40;99.90;;;;;;5065311;28;20419;-88
2023/01/20 05:31:25;;;;;;;132.48;38.60;;;0.40;99.90;;;;;;5047431;28;20457;-88
2023/01/20 05:33:50;;;;;;;153.50;39.80;;;0.40;99.90;;;;;;5048057;28;20416;-88
2023/01/20 05:36:16;;;;;;;160.48;39.33;;;0.50;99.90;;;;;;5048339;28;20756;-88
2023/01/20 05:38:42;;;;;;;161.40;39.37;;;0.50;99.90;;;;;;5047841;28;20922;-89
2023/01/20 05:41:09;;;;;;;139.77;37.17;;;0.40;99.90;;;;;;5048357;28;20458;-88
2023/01/20 05:43:35;;;;;;;177.60;39.77;;;0.60;99.90;;;;;;5047319;28;20524;-90
2023/01/20 05:46:02;;;;;;;163.90;38.50;;;0.50;99.90;;;;;;5065171;28;20411;-89
2023/01/20 05:48:27;;;;;;;158.65;38.85;;;0.50;99.90;;;;;;5064462;28;20411;-88
2023/01/20 05:50:53;;;;;;;203.73;42.88;;;0.50;99.90;;;;;;5048094;28;20510;-87
2023/01/20 05:53:19;;;;;;;206.77;41.80;;;0.50;99.90;;;;;;5047376;28;20400;-88
2023/01/20 05:55:45;;;;;;;166.68;39.05;;;0.50;99.90;;;;;;5064683;28;20420;-89
2023/01/20 05:58:11;;;;;;;183.45;40.30;;;0.50;99.90;;;;;;5048576;28;20420;-88
2023/01/20 06:00:37;;;;;;;168.30;39.53;;;0.50;99.90;;;;;;5047231;28;20440;-89
2023/01/20 06:03:02;;;;;;;144.30;40.47;;;0.50;99.90;;;;;;5048422;28;20987;-88
2023/01/20 06:05:28;;;;;;;157.27;39.20;;;0.50;99.90;;;;;;5046648;28;20803;-89
2023/01/20 06:07:54;;;;;;;181.40;40.43;;;0.70;99.90;;;;;;5065278;28;20423;-89
2023/01/20 06:10:23;;;;;;;173.02;39.28;;;0.50;99.90;;;;;;5067843;28;20407;-88
2023/01/20 06:12:53;;;;;;;202.75;41.35;;;0.50;99.90;;;;;;5051668;28;20469;-89
2023/01/20 06:15:20;;;;;;;155.40;38.75;;;0.50;99.90;;;;;;5068315;28;20423;-88
2023/01/20 06:17:45;;;;;;;160.52;40.00;;;0.50;99.90;;;;;;5050861;28;20414;-88
2023/01/20 06:20:11;;;;;;;141.43;37.90;;;0.50;99.90;;;;;;5068376;28;20802;-88
2023/01/20 06:22:37;;;;;;;146.43;39.05;;;0.50;99.90;;;;;;5050118;28;20477;-87
2023/01/20 06:25:03;;;;;;;133.03;38.57;;;0.50;99.90;;;;;;5051717;28;20488;-88
2023/01/20 06:27:29;;;;;;;110.32;36.20;;;0.50;99.90;;;;;;5066655;28;20408;-87
2023/01/20 06:29:54;;;;;;;116.00;37.45;;;0.50;99.90;;;;;;5067912;28;20415;-89
2023/01/20 06:32:20;;;;;;;122.53;38.47;;;0.50;99.90;;;;;;5051010;28;20411;-87
2023/01/20 06:34:46;;;;;;;112.20;37.42;;;0.50;99.90;;;;;;5051009;28;20925;-88
2023/01/20 06:37:12;;;;;;;115.90;38.23;;;0.50;99.90;;;;;;5067957;28;20492;-88
2023/01/20 06:39:39;;;;;;;118.27;38.27;;;0.50;99.90;;;;;;5050017;28;20461;-88
2023/01/20 06:42:05;;;;;;;116.63;38.60;;;0.50;99.90;;;;;;5051406;28;20496;-88
2023/01/20 06:44:30;;;;;;;122.63;40.03;;;0.50;99.90;;;;;;5066307;28;20447;-89
2023/01/20 06:46:56;;;;;;;113.63;38.17;;;0.50;99.90;;;;;;5068175;28;20466;-89
2023/01/20 06:49:22;;;;;;;102.88;37.13;;;0.50;99.90;;;;;;5049827;28;20938;-88
2023/01/20 06:51:48;;;;;;;101.87;38.00;;;0.60;99.90;;;;;;5067622;28;20450;-89
2023/01/20 06:54:14;;;;;;;105.93;38.47;;;0.50;99.90;;;;;;5050608;28;20400;-88
2023/01/20 06:56:39;;;;;;;102.83;38.57;;;0.50;99.90;;;;;;5049921;28;20895;-89
2023/01/20 06:59:05;;;;;;;105.63;39.57;;;0.50;99.90;;;;;;5067667;28;20492;-89
2023/01/20 07:01:31;;;;;;;99.73;37.53;;;0.50;99.90;;;;;;5049168;28;20432;-88
2023/01/20 07:03:57;;;;;;;110.63;40.30;;;0.50;99.90;;;;;;5050922;28;20419;-88
2023/01/20 07:06:37;;;;;;;95.63;38.45;;;0.50;99.90;;;;;;5049492;28;20408;-88
2023/01/20 07:09:05;;;;;;;101.63;39.08;;;0.70;99.90;;;;;;5067581;28;20408;-89
2023/01/20 07:11:30;;;;;;;98.20;39.17;;;0.60;99.90;;;;;;5050252;28;20487;-87
2023/01/20 07:13:57;;;;;;;83.88;36.65;;;0.60;99.90;;;;;;5066469;28;20502;-89
2023/01/20 07:16:22;;;;;;;91.95;38.08;;;0.60;99.90;;;;;;5050414;28;20482;-88
2023/01/20 07:18:50;;;;;;;103.67;39.90;;;0.60;99.90;;;;;;5066169;28;20969;-89
2023/01/20 07:21:17;;;;;;;94.80;37.80;;;0.60;99.90;;;;;;5049934;28;20998;-89
2023/01/20 07:23:43;;;;;;;102.47;41.25;;;0.60;99.90;;;;;;5049268;28;20546;-88
2023/01/20 07:26:15;;;;;;;94.78;38.85;;;0.60;99.90;;;;;;5066883;28;20412;-87
2023/01/20 07:28:41;;;;;;;106.95;41.53;;;0.80;99.90;;;;;;5049767;28;20460;-88
2023/01/20 07:31:12;;;;;;;116.60;44.28;;;0.70;99.90;;;;;;5050527;28;20414;-88
2023/01/20 07:33:38;;;;;;;118.28;44.05;;;0.70;99.90;;;;;;5050349;28;20820;-90
2023/01/20 07:36:05;;;;;;;105.00;42.22;;;0.70;99.90;;;;;;5048783;28;20461;-90
2023/01/20 07:38:31;;;;;;;118.03;44.58;;;0.70;99.90;;;;;;5050442;28;20404;-88
2023/01/20 07:41:01;;;;;;;113.13;45.63;;;0.70;99.90;;;;;;5048270;28;20990;-89
2023/01/20 07:43:27;;;;;;;126.90;46.97;;;0.70;99.90;;;;;;5061255;28;20791;-88
2023/01/20 07:46:01;;;;;;;116.65;45.83;;;0.70;99.90;;;;;;5065991;28;20407;-88
2023/01/20 07:48:29;;;;;;;104.35;44.17;;;0.70;99.90;;;;;;5049094;28;20442;-88
2023/01/20 07:51:02;;;;;;;114.82;45.45;;;0.80;99.90;;;;;;5066493;28;20396;-88
2023/01/20 07:53:39;;;;;;;118.95;46.13;;;0.80;99.90;;;;;;5065519;28;20414;-89
2023/01/20 07:56:06;;;;;;;116.85;45.80;;;0.80;99.90;;;;;;5049735;28;20407;-89
2023/01/20 07:58:31;;;;;;;116.43;47.08;;;0.80;99.90;;;;;;5048597;28;20420;-88
2023/01/20 08:01:04;;;;;;;114.00;45.63;;;0.80;99.90;;;;;;5049649;28;20431;-88
2023/01/20 08:03:29;;;;;;;117.87;47.47;;;0.80;99.90;;;;;;5049362;28;20414;-88
2023/01/20 08:05:55;;;;;;;104.50;44.57;;;0.80;99.90;;;;;;5048919;28;20404;-89
2023/01/20 08:08:22;;;;;;;109.82;46.15;;;0.80;99.90;;;;;;5049623;28;20773;-88
2023/01/20 08:10:53;;;;;;;115.20;47.78;;;0.80;99.90;;;;;;5048434;28;20782;-88
2023/01/20 08:13:18;;;;;;;104.85;45.92;;;0.80;99.90;;;;;;5066740;28;20862;-88
2023/01/20 08:15:44;;;;;;;112.50;46.90;;;0.90;99.90;;;;;;5048372;28;20503;-88
2023/01/20 08:18:10;;;;;;;115.05;48.35;;;0.90;99.90;;;;;;5049328;28;20407;-88
2023/01/20 08:20:39;;;;;;;108.77;46.30;;;0.80;99.90;;;;;;5048199;28;20478;-88
2023/01/20 08:23:05;;;;;;;107.05;44.95;;;0.90;99.90;;;;;;5048723;28;20484;-89
2023/01/20 08:25:31;;;;;;;113.80;45.10;;;0.90;99.90;;;;;;5049139;28;20827;-88
2023/01/20 08:27:56;;;;;;;110.03;46.63;;;0.90;99.90;;;;;;5064783;28;20403;-88
2023/01/20 08:30:22;;;;;;;105.55;44.60;;;0.90;99.90;;;;;;5049427;28;20480;-89
2023/01/20 08:32:48;;;;;;;105.60;44.53;;;0.90;99.90;;;;;;5064566;28;20408;-88
2023/01/20 08:35:13;;;;;;;114.93;45.37;;;0.90;99.90;;;;;;5049190;28;20412;-89
2023/01/20 08:37:39;;;;;;;110.32;46.83;;;1.00;99.90;;;;;;5048467;28;21028;-89
2023/01/20 08:40:07;;;;;;;103.13;44.72;;;1.00;99.90;;;;;;5065238;28;20730;-89
2023/01/20 08:42:34;;;;;;;109.90;46.50;;;1.00;99.90;;;;;;5065646;28;20404;-89
2023/01/20 08:45:00;;;;;;;100.67;44.33;;;1.00;99.90;;;;;;5048155;28;20400;-89
2023/01/20 08:47:26;;;;;;;105.67;45.10;;;1.00;99.90;;;;;;5066287;28;20411;-88
2023/01/20 08:49:52;;;;;;;106.07;44.33;;;1.10;99.90;;;;;;5064269;28;20414;-89
2023/01/20 08:52:18;;;;;;;108.57;46.35;;;1.00;99.90;;;;;;5049303;28;20400;-88
2023/01/20 08:54:44;;;;;;;105.50;45.00;;;1.10;99.90;;;;;;5047899;28;20415;-88
2023/01/20 08:57:10;;;;;;;104.68;45.72;;;1.10;99.90;;;;;;5065519;28;20415;-90
2023/01/20 08:59:35;;;;;;;100.88;44.78;;;1.10;99.90;;;;;;5065099;28;20946;-89
2023/01/20 09:02:01;;;;;;;103.00;43.83;;;1.10;99.90;;;;;;5048173;28;20493;-89
2023/01/20 09:04:26;;;;;;;102.63;44.97;;;1.10;99.90;;;;;;5048847;28;20416;-90
2023/01/20 09:06:52;;;;;;;97.80;43.53;;;1.10;99.90;;;;;;5047934;28;20914;-88
2023/01/20 09:09:21;;;;;;;100.18;44.00;;;1.10;99.90;;;;;;5065736;28;20443;-88
2023/01/20 09:11:49;;;;;;;98.87;42.97;;;1.10;99.90;;;;;;5047463;28;20778;-89
2023/01/20 09:14:20;;;;;;;104.30;45.15;;;1.20;99.90;;;;;;5066066;28;20407;-89
2023/01/20 09:16:45;;;;;;;95.07;43.42;;;1.20;99.90;;;;;;5047590;28;20412;-88
2023/01/20 09:19:11;;;;;;;97.90;42.15;;;1.20;99.80;;;;;;5065080;28;20436;-90
2023/01/20 09:21:36;;;;;;;100.03;43.60;;;1.20;99.80;;;;;;5065005;28;20434;-89
2023/01/20 09:24:02;;;;;;;93.30;41.83;;;1.40;99.80;;;;;;5047370;28;20507;-88
2023/01/20 09:26:37;;;;;;;94.80;41.35;;;1.20;99.70;;;;;;5048901;28;20493;-89
2023/01/20 09:29:07;;;;;;;90.20;41.72;;;1.20;99.60;;;;;;5064028;28;20823;-89
2023/01/20 09:31:34;;;;;;;96.38;42.88;;;1.30;99.60;;;;;;5065401;28;20461;-89
2023/01/20 09:34:00;;;;;;;94.45;42.42;;;1.30;99.70;;;;;;5064377;28;20476;-89
2023/01/20 09:36:29;;;;;;;92.68;42.50;;;1.30;99.70;;;;;;5065080;28;20415;-89
2023/01/20 09:44:39;;;;;;;92.10;41.72;;;1.40;99.40;;;;;;5067932;28;20412;-88
2023/01/20 09:47:26;;;;;;;91.57;41.80;;;1.40;99.40;;;;;;5051839;28;20491;-89
2023/01/20 09:53:19;;;;;;;91.10;40.78;;;1.50;99.50;;;;;;5069209;28;20833;-88
2023/01/20 09:55:51;;;;;;;89.10;39.60;;;1.50;99.50;;;;;;5067949;28;20594;-88
2023/01/20 09:58:56;;;;;;;87.03;39.88;;;1.50;99.40;;;;;;5068221;28;20422;-89
2023/01/20 10:02:03;;;;;;;85.57;39.92;;;1.50;99.30;;;;;;5069015;28;20846;-89
2023/01/20 10:04:40;;;;;;;85.63;37.83;;;1.60;99.20;;;;;;4994302;28;20439;-88
2023/01/20 10:07:11;;;;;;;79.72;37.55;;;1.60;99.20;;;;;;5010094;28;20426;-88
2023/01/20 10:09:48;;;;;;;86.43;38.57;;;1.60;99.10;;;;;;5026386;28;20412;-87
2023/01/20 10:12:41;;;;;;;78.50;36.97;;;1.60;99.20;;;;;;5050720;28;20424;-88
2023/01/20 10:15:11;;;;;;;87.88;38.95;;;1.60;99.10;;;;;;5045854;28;20423;-88
2023/01/20 10:17:40;;;;;;;83.63;38.40;;;1.60;99.10;;;;;;5051535;28;20423;-88
2023/01/20 10:20:16;;;;;;;81.53;37.83;;;1.60;99.10;;;;;;5051180;28;20448;-89
2023/01/20 10:22:48;;;;;;;80.43;37.97;;;1.60;99.10;;;;;;5068910;28;20930;-89
2023/01/20 10:25:20;;;;;;;84.43;38.63;;;1.60;99.10;;;;;;5050500;28;20515;-88
2023/01/20 10:28:00;;;;;;;80.93;36.63;;;1.60;99.10;;;;;;5051479;28;20443;-89
2023/01/20 10:30:31;;;;;;;78.80;36.13;;;1.60;99.10;;;;;;5050827;28;20427;-90
2023/01/20 10:33:11;;;;;;;80.15;37.10;;;1.70;99.10;;;;;;5051386;28;20399;-88
2023/01/20 10:35:58;;;;;;;75.28;35.22;;;1.70;99.10;;;;;;5051751;28;20431;-89
2023/01/20 10:38:44;;;;;;;80.35;36.25;;;1.70;99.10;;;;;;5049756;28;20420;-88
2023/01/20 10:41:20;;;;;;;71.47;34.35;;;1.80;99.10;;;;;;5051392;28;20780;-89
2023/01/20 10:43:47;;;;;;;75.50;35.08;;;1.90;99.10;;;;;;5068223;28;20839;-89
2023/01/20 10:46:25;;;;;;;79.50;36.55;;;1.90;99.00;;;;;;5050314;28;20490;-89
2023/01/20 10:48:54;;;;;;;77.50;34.88;;;1.90;98.90;;;;;;5068223;28;20408;-89
2023/01/20 10:51:39;;;;;;;76.35;36.03;;;1.90;99.00;;;;;;5049868;28;20431;-89
2023/01/20 10:54:22;;;;;;;73.20;35.80;;;1.90;98.90;;;;;;5051854;28;20415;-89
2023/01/20 10:56:59;;;;;;;79.75;36.00;;;1.90;98.80;;;;;;5049961;28;21087;-88
2023/01/20 10:59:49;;;;;;;77.07;35.33;;;2.00;98.80;;;;;;5049542;28;20888;-91
2023/01/20 11:02:36;;;;;;;76.28;35.72;;;2.00;98.80;;;;;;5060591;28;20427;-90
2023/01/20 11:05:20;;;;;;;79.38;35.38;;;2.00;98.70;;;;;;5049933;28;20418;-88
2023/01/20 11:07:48;;;;;;;79.15;36.35;;;2.00;98.70;;;;;;5049824;28;20461;-88
2023/01/20 11:10:16;;;;;;;74.38;36.25;;;2.00;98.60;;;;;;5050794;28;20408;-88
2023/01/20 11:12:43;;;;;;;73.75;34.95;;;2.00;98.60;;;;;;5066604;28;20460;-88
2023/01/20 11:15:22;;;;;;;72.40;35.15;;;2.00;98.60;;;;;;5051422;28;20495;-89
2023/01/20 11:18:13;;;;;;;74.32;35.22;;;2.00;98.50;;;;;;5049361;28;20460;-89
2023/01/20 11:20:57;;;;;;;73.35;35.45;;;2.00;98.50;;;;;;5066839;28;20887;-89
2023/01/20 11:23:22;;;;;;;71.38;34.75;;;2.00;98.40;;;;;;5051190;28;20472;-90
2023/01/20 11:26:00;;;;;;;70.70;34.97;;;2.00;98.50;;;;;;5066167;28;20503;-87
2023/01/20 11:28:35;;;;;;;66.63;33.95;;;2.00;98.50;;;;;;5050993;28;20451;-90
2023/01/20 11:31:03;;;;;;;71.35;35.67;;;2.00;98.50;;;;;;5049941;28;20411;-89
2023/01/20 11:33:28;;;;;;;72.70;34.88;;;2.10;98.50;;;;;;5050387;28;20404;-87
2023/01/20 11:36:06;;;;;;;69.40;35.40;;;2.00;98.40;;;;;;5050378;28;20419;-88
2023/01/20 11:38:42;;;;;;;71.22;34.17;;;2.00;98.50;;;;;;5065858;28;20856;-89
2023/01/20 11:41:21;;;;;;;71.18;33.45;;;2.00;98.50;;;;;;5067144;28;20496;-89
2023/01/20 11:43:48;;;;;;;67.72;33.33;;;2.00;98.50;;;;;;5049233;28;20474;-90
2023/01/20 11:46:15;;;;;;;63.10;32.10;;;2.00;98.50;;;;;;5067203;28;20779;-91
2023/01/20 11:48:41;;;;;;;62.50;31.67;;;2.00;98.50;;;;;;5049630;28;20408;-88
2023/01/20 11:51:23;;;;;;;58.45;30.20;;;2.20;98.50;;;;;;5048971;28;20814;-88
2023/01/20 11:53:49;;;;;;;58.28;29.42;;;2.00;98.50;;;;;;5045008;28;20431;-88
2023/01/20 11:56:23;;;;;;;55.53;28.97;;;2.00;98.40;;;;;;5064976;28;20415;-89
2023/01/20 11:58:54;;;;;;;52.53;28.23;;;2.00;98.40;;;;;;5050420;28;20424;-90
2023/01/20 12:01:26;;;;;;;50.08;27.13;;;2.10;98.30;;;;;;5065920;28;20431;-90
2023/01/20 12:04:21;;;;;;;51.10;27.17;;;2.10;98.20;;;;;;5066675;28;20403;-89
2023/01/20 12:07:01;;;;;;;51.37;27.63;;;2.10;98.30;;;;;;5049844;28;20399;-89
2023/01/20 12:09:37;;;;;;;49.45;27.88;;;2.10;98.20;;;;;;5048504;28;20476;-89
2023/01/20 12:12:25;;;;;;;53.70;28.58;;;2.40;98.20;;;;;;5050115;28;20838;-90
2023/01/20 12:15:00;;;;;;;51.58;27.60;;;2.10;98.20;;;;;;5049798;28;20509;-87
2023/01/20 12:17:44;;;;;;;49.78;27.70;;;2.10;98.20;;;;;;5066007;28;20420;-89
2023/01/20 12:20:12;;;;;;;54.80;27.55;;;2.10;98.10;;;;;;5050322;28;20420;-89
2023/01/20 12:23:07;;;;;;;50.05;27.63;;;2.10;98.20;;;;;;5064827;28;20411;-89
2023/01/20 12:26:04;;;;;;;53.00;29.10;;;2.10;98.20;;;;;;5021171;28;20423;-88
2023/01/20 12:28:39;;;;;;;49.22;27.75;;;2.10;98.30;;;;;;5037213;28;20415;-89
2023/01/20 12:31:08;;;;;;;53.73;29.53;;;2.20;98.10;;;;;;5048132;28;20854;-89
2023/01/20 12:33:44;;;;;;;53.90;29.50;;;2.20;97.90;;;;;;5066282;28;20419;-90
2023/01/20 12:36:48;;;;;;;50.28;28.17;;;2.10;97.90;;;;;;5065698;28;20423;-89
2023/01/20 12:39:42;;;;;;;49.05;26.95;;;2.10;97.90;;;;;;5065254;28;20422;-89
2023/01/20 12:42:46;;;;;;;49.03;26.65;;;2.10;98.00;;;;;;5044054;28;20450;-88
2023/01/20 12:45:40;;;;;;;46.88;26.27;;;2.10;98.00;;;;;;5049607;28;20426;-90
2023/01/20 12:48:11;;;;;;;47.47;27.03;;;2.10;97.90;;;;;;5048467;28;20994;-91
2023/01/20 12:50:52;;;;;;;51.13;27.50;;;2.10;97.80;;;;;;5066294;28;20428;-89
2023/01/20 12:53:26;;;;;;;49.55;27.88;;;2.10;97.90;;;;;;5048543;28;20791;-90
2023/01/20 12:56:18;;;;;;;45.70;26.52;;;2.10;97.90;;;;;;5048781;28;20411;-90
2023/01/20 12:59:00;;;;;;;48.67;27.40;;;2.10;97.90;;;;;;5049177;28;20418;-88
2023/01/20 13:01:41;;;;;;;50.00;28.00;;;2.10;98.00;;;;;;5047390;28;20460;-91